createdAt,value
2022-11-26T00:02:35.647Z,15.18
2022-11-26T00:05:26.510Z,15.14
2022-11-26T00:08:29.518Z,15.04
2022-11-26T00:11:12.806Z,15.07
2022-11-26T00:14:01.546Z,15.17
2022-11-26T00:16:43.912Z,15.18
2022-11-26T00:19:32.620Z,15.06
2022-11-26T00:22:30.838Z,15.06
2022-11-26T00:25:24.537Z,14.98
2022-11-26T00:28:14.557Z,15.02
2022-11-26T00:31:05.566Z,15.17
2022-11-26T00:33:47.873Z,15.12
2022-11-26T00:36:39.607Z,15.11
2022-11-26T00:39:26.827Z,15.13
2022-11-26T00:42:18.501Z,15.07
2022-11-26T00:45:00.881Z,14.97
2022-11-26T00:47:49.466Z,15.08
2022-11-26T00:50:34.903Z,15.06
2022-11-26T00:53:29.499Z,15.00
2022-11-26T00:56:23.862Z,14.84
2022-11-26T00:59:05.535Z,14.74
2022-11-26T01:01:54.964Z,14.76
2022-11-26T01:04:36.716Z,14.67
2022-11-26T01:07:19.045Z,14.67
2022-11-26T01:10:07.434Z,14.48
2022-11-26T01:12:57.871Z,14.44
2022-11-26T01:15:39.399Z,14.37
2022-11-26T01:18:29.821Z,14.55
2022-11-26T01:21:12.517Z,14.57
2022-11-26T01:24:01.811Z,14.67
2022-11-26T01:26:53.454Z,14.67
2022-11-26T01:29:48.602Z,14.80
2022-11-26T01:32:30.681Z,14.65
2022-11-26T01:35:19.542Z,14.78
2022-11-26T01:38:08.942Z,14.72
2022-11-26T01:41:22.408Z,14.55
2022-11-26T01:44:12.409Z,14.83
2022-11-26T01:46:55.785Z,14.58
2022-11-26T01:49:46.494Z,14.60
2022-11-26T01:52:32.965Z,14.80
2022-11-26T01:55:25.454Z,14.86
2022-11-26T01:58:07.822Z,14.85
2022-11-26T02:00:50.560Z,14.68
2022-11-26T02:03:36.398Z,14.63
2022-11-26T02:06:34.442Z,14.61
2022-11-26T02:09:23.831Z,14.55
2022-11-26T02:12:06.405Z,14.62
2022-11-26T02:14:55.784Z,14.83
2022-11-26T02:17:58.422Z,14.87
2022-11-26T02:20:58.776Z,14.98
2022-11-26T02:23:59.523Z,15.05
2022-11-26T02:27:15.691Z,15.15
2022-11-26T02:30:29.514Z,15.15
2022-11-26T02:33:32.506Z,15.25
2022-11-26T02:36:24.801Z,15.35
2022-11-26T02:39:25.541Z,15.40
2022-11-26T02:42:09.757Z,15.40
2022-11-26T02:44:58.402Z,15.50
2022-11-26T02:47:43.836Z,15.49
2022-11-26T02:50:46.463Z,15.81
2022-11-26T02:53:40.451Z,15.93
2022-11-26T02:56:41.478Z,16.08
2022-11-26T02:59:30.547Z,16.10
2022-11-26T03:03:01.016Z,16.39
2022-11-26T03:05:50.399Z,16.50
2022-11-26T03:08:34.753Z,16.71
2022-11-26T03:11:23.536Z,16.84
2022-11-26T03:14:05.775Z,16.97
2022-11-26T03:16:54.604Z,17.31
2022-11-26T03:19:36.783Z,17.46
2022-11-26T03:22:25.434Z,17.84
2022-11-26T03:25:07.811Z,18.02
2022-11-26T03:27:56.445Z,18.31
2022-11-26T03:30:45.440Z,18.65
2022-11-26T03:33:34.729Z,19.08
2022-11-26T03:36:17.523Z,19.31
2022-11-26T03:38:59.774Z,19.63
2022-11-26T03:41:51.607Z,19.90
2022-11-26T03:44:40.875Z,20.31
2022-11-26T03:47:23.446Z,20.67
2022-11-26T03:50:07.540Z,20.91
2022-11-26T03:52:59.310Z,21.16
2022-11-26T03:55:47.804Z,21.43
2022-11-26T03:58:30.483Z,21.86
2022-11-26T04:01:14.316Z,22.14
2022-11-26T04:04:03.578Z,22.42
2022-11-26T04:06:52.832Z,22.56
2022-11-26T04:09:35.515Z,22.59
2022-11-26T04:12:17.749Z,22.77
2022-11-26T04:15:06.504Z,22.77
2022-11-26T04:17:48.692Z,22.98
2022-11-26T04:20:37.514Z,23.06
2022-11-26T04:23:19.895Z,23.14
2022-11-26T04:26:08.505Z,23.30
2022-11-26T04:28:51.660Z,23.20
2022-11-26T04:31:40.410Z,23.18
2022-11-26T04:34:22.665Z,23.23
2022-11-26T04:37:11.468Z,23.28
2022-11-26T04:39:53.675Z,23.28
2022-11-26T04:42:42.509Z,23.17
2022-11-26T04:45:24.820Z,23.21
2022-11-26T04:48:13.540Z,23.16
2022-11-26T04:51:02.748Z,23.16
2022-11-26T04:53:45.448Z,22.90
2022-11-26T04:56:40.377Z,23.20
2022-11-26T04:59:29.757Z,23.44
2022-11-26T05:02:11.792Z,23.46
2022-11-26T05:05:00.404Z,23.30
2022-11-26T05:07:42.820Z,23.31
2022-11-26T05:10:31.524Z,23.51
2022-11-26T05:13:13.720Z,23.62
2022-11-26T05:16:02.514Z,23.50
2022-11-26T05:18:44.711Z,23.51
2022-11-26T05:21:33.496Z,23.63
2022-11-26T05:24:15.754Z,23.72
2022-11-26T05:27:04.514Z,23.94
2022-11-26T05:29:46.776Z,23.88
2022-11-26T05:32:35.399Z,24.14
2022-11-26T05:35:25.379Z,24.31
2022-11-26T05:38:21.470Z,24.51
2022-11-26T05:41:09.730Z,24.64
2022-11-26T05:43:52.496Z,24.29
2022-11-26T05:46:34.888Z,24.55
2022-11-26T05:49:24.516Z,24.78
2022-11-26T05:52:13.739Z,24.49
2022-11-26T05:55:08.448Z,24.97
2022-11-26T05:57:50.613Z,25.04
2022-11-26T06:00:39.566Z,25.18
2022-11-26T06:03:21.859Z,24.78
2022-11-26T06:06:10.605Z,25.15
2022-11-26T06:08:59.706Z,24.71
2022-11-26T06:11:41.365Z,25.17
2022-11-26T06:14:30.374Z,24.84
2022-11-26T06:17:12.888Z,24.43
2022-11-26T06:20:01.458Z,24.94
2022-11-26T06:22:54.468Z,24.96
2022-11-26T06:25:36.760Z,25.34
2022-11-26T06:28:25.569Z,25.37
2022-11-26T06:31:09.630Z,25.25
2022-11-26T06:33:58.492Z,25.37
2022-11-26T06:36:40.620Z,24.78
2022-11-26T06:39:29.458Z,24.99
2022-11-26T06:42:11.631Z,25.17
2022-11-26T06:45:00.514Z,25.14
2022-11-26T06:47:49.886Z,25.15
2022-11-26T06:50:32.442Z,24.94
2022-11-26T06:53:14.697Z,24.74
2022-11-26T06:56:03.454Z,24.91
2022-11-26T06:58:47.382Z,25.16
2022-11-26T07:01:40.624Z,25.36
2022-11-26T07:04:29.850Z,25.31
2022-11-26T07:07:11.519Z,25.01
2022-11-26T07:09:55.785Z,25.46
2022-11-26T07:12:44.434Z,25.33
2022-11-26T07:15:26.800Z,25.58
2022-11-26T07:18:15.572Z,25.81
2022-11-26T07:20:58.656Z,25.92
2022-11-26T07:23:47.480Z,25.62
2022-11-26T07:26:36.487Z,25.74
2022-11-26T07:29:19.082Z,25.75
2022-11-26T07:32:08.359Z,25.80
2022-11-26T07:34:50.758Z,26.06
2022-11-26T07:37:41.413Z,25.96
2022-11-26T07:40:24.090Z,25.68
2022-11-26T07:43:13.393Z,25.62
2022-11-26T07:45:55.822Z,25.86
2022-11-26T07:48:46.446Z,25.76
2022-11-26T07:51:31.798Z,25.38
2022-11-26T07:54:26.450Z,25.79
2022-11-26T07:57:14.873Z,26.03
2022-11-26T07:59:57.553Z,26.04
2022-11-26T08:02:46.715Z,25.83
2022-11-26T08:05:35.488Z,25.79
2022-11-26T08:08:24.720Z,25.74
2022-11-26T08:11:06.421Z,25.71
2022-11-26T08:13:55.790Z,26.04
2022-11-26T08:16:38.456Z,26.07
2022-11-26T08:19:20.907Z,26.06
2022-11-26T08:22:09.444Z,26.12
2022-11-26T08:24:58.913Z,26.05
2022-11-26T08:27:41.414Z,25.77
2022-11-26T08:30:29.708Z,25.90
2022-11-26T08:33:12.456Z,26.09
2022-11-26T08:36:07.923Z,26.01
2022-11-26T08:38:51.423Z,26.02
2022-11-26T08:41:40.467Z,26.24
2022-11-26T08:44:22.782Z,26.12
2022-11-26T08:47:11.694Z,26.14
2022-11-26T08:49:53.814Z,26.00
2022-11-26T08:52:42.465Z,26.13
2022-11-26T08:55:59.243Z,26.10
2022-11-26T08:58:52.519Z,26.16
2022-11-26T09:01:38.495Z,26.09
2022-11-26T09:04:26.698Z,26.17
2022-11-26T09:07:08.452Z,26.00
2022-11-26T09:09:50.598Z,26.02
2022-11-26T09:12:39.335Z,25.94
2022-11-26T09:15:28.432Z,25.91
2022-11-26T09:18:17.468Z,25.88
2022-11-26T09:21:04.273Z,25.87
2022-11-26T09:23:53.399Z,25.83
2022-11-26T09:26:42.469Z,25.85
2022-11-26T09:29:27.703Z,25.94
2022-11-26T09:32:28.252Z,25.81
2022-11-26T09:35:11.767Z,25.82
2022-11-26T09:38:00.390Z,25.82
2022-11-26T09:41:04.434Z,25.86
2022-11-26T09:44:04.475Z,25.99
2022-11-26T09:47:11.875Z,25.78
2022-11-26T09:50:06.545Z,25.86
2022-11-26T09:53:05.335Z,25.80
2022-11-26T09:55:51.833Z,25.70
2022-11-26T09:58:55.433Z,25.59
2022-11-26T10:01:44.861Z,25.65
2022-11-26T10:04:41.614Z,25.58
2022-11-26T10:07:58.437Z,25.58
2022-11-26T10:11:14.876Z,25.52
2022-11-26T10:14:26.425Z,25.46
2022-11-26T10:17:20.745Z,25.38
2022-11-26T10:20:36.426Z,25.38
2022-11-26T10:23:21.915Z,25.33
2022-11-26T10:26:24.462Z,25.28
2022-11-26T10:29:33.730Z,25.23
2022-11-26T10:32:40.399Z,25.02
2022-11-26T10:35:24.786Z,24.89
2022-11-26T10:38:13.377Z,24.90
2022-11-26T10:41:02.418Z,24.80
2022-11-26T10:43:51.435Z,24.81
2022-11-26T10:46:43.900Z,24.62
2022-11-26T10:49:35.440Z,24.41
2022-11-26T10:52:18.532Z,24.47
2022-11-26T10:55:38.425Z,24.31
2022-11-26T10:58:30.403Z,24.27
2022-11-26T11:01:22.444Z,24.16
2022-11-26T11:04:17.679Z,24.08
2022-11-26T11:07:00.402Z,23.85
2022-11-26T11:09:48.864Z,23.81
2022-11-26T11:12:32.378Z,23.71
2022-11-26T11:15:40.384Z,23.57
2022-11-26T11:18:24.227Z,23.43
2022-11-26T11:21:15.338Z,23.37
2022-11-26T11:24:16.795Z,23.16
2022-11-26T11:27:08.445Z,23.01
2022-11-26T11:29:52.693Z,22.83
2022-11-26T11:32:51.340Z,22.79
2022-11-26T11:35:40.827Z,22.56
2022-11-26T11:38:31.443Z,22.42
2022-11-26T11:41:30.384Z,22.29
2022-11-26T11:44:51.404Z,22.20
2022-11-26T11:47:58.543Z,22.04
2022-11-26T11:50:51.301Z,22.00
2022-11-26T11:53:40.468Z,21.92
2022-11-26T11:56:39.689Z,21.80
2022-11-26T11:59:55.383Z,21.66
2022-11-26T12:03:22.897Z,21.63
2022-11-26T12:06:27.515Z,21.51
2022-11-26T12:09:49.461Z,21.40
2022-11-26T12:12:45.451Z,21.22
2022-11-26T12:15:44.455Z,21.18
2022-11-26T12:18:35.734Z,21.07
2022-11-26T12:21:24.378Z,20.99
2022-11-26T12:24:31.465Z,20.99
2022-11-26T12:27:38.739Z,20.84
2022-11-26T12:30:39.468Z,20.73
2022-11-26T12:34:04.178Z,20.76
2022-11-26T12:37:14.820Z,20.64
2022-11-26T12:40:03.423Z,20.64
2022-11-26T12:43:50.135Z,20.61
2022-11-26T12:47:19.376Z,20.42
2022-11-26T12:50:24.393Z,20.42
2022-11-26T12:53:35.330Z,20.38
2022-11-26T12:56:43.168Z,20.35
2022-11-26T12:59:39.333Z,20.18
2022-11-26T13:02:39.740Z,20.15
2022-11-26T13:05:56.370Z,20.12
2022-11-26T13:09:12.381Z,20.00
2022-11-26T13:12:02.668Z,19.90
2022-11-26T13:15:22.436Z,19.84
2022-11-26T13:18:06.727Z,19.83
2022-11-26T13:21:13.411Z,19.85
2022-11-26T13:24:21.750Z,19.74
2022-11-26T13:27:22.451Z,19.67
2022-11-26T13:30:22.479Z,19.61
2022-11-26T13:33:31.434Z,19.63
2022-11-26T13:36:49.709Z,19.56
2022-11-26T13:39:54.395Z,19.53
2022-11-26T13:43:06.790Z,19.46
2022-11-26T13:46:09.507Z,19.38
2022-11-26T13:49:08.421Z,19.45
2022-11-26T13:51:59.818Z,19.40
2022-11-26T13:54:58.396Z,19.30
2022-11-26T13:57:53.723Z,19.19
2022-11-26T14:00:45.560Z,19.24
2022-11-26T14:03:56.906Z,19.37
2022-11-26T14:06:39.417Z,19.18
2022-11-26T14:09:52.399Z,19.21
2022-11-26T14:13:12.748Z,19.18
2022-11-26T14:16:10.476Z,19.08
2022-11-26T14:19:08.437Z,19.27
2022-11-26T14:22:01.345Z,19.36
2022-11-26T14:25:05.297Z,19.13
2022-11-26T14:28:04.451Z,19.05
2022-11-26T14:30:46.680Z,18.91
2022-11-26T14:33:37.335Z,18.87
2022-11-26T14:36:38.733Z,18.92
2022-11-26T14:39:27.341Z,18.96
2022-11-26T14:42:09.716Z,18.94
2022-11-26T14:45:25.438Z,18.89
2022-11-26T14:48:16.432Z,18.83
2022-11-26T14:51:01.257Z,18.79
2022-11-26T14:53:54.376Z,18.74
2022-11-26T14:56:52.284Z,18.61
2022-11-26T14:59:41.423Z,18.55
2022-11-26T15:02:31.873Z,18.57
2022-11-26T15:05:43.551Z,18.52
2022-11-26T15:08:27.793Z,18.44
2022-11-26T15:11:20.186Z,18.45
2022-11-26T15:14:03.710Z,18.46
2022-11-26T15:16:54.289Z,18.43
2022-11-26T15:19:42.695Z,18.37
2022-11-26T15:22:42.319Z,18.37
2022-11-26T15:25:46.352Z,18.41
2022-11-26T15:28:28.242Z,18.50
2022-11-26T15:31:19.474Z,18.42
2022-11-26T15:34:07.725Z,18.52
2022-11-26T15:36:50.338Z,18.42
2022-11-26T15:39:39.752Z,18.42
2022-11-26T15:42:38.299Z,18.34
2022-11-26T15:45:30.687Z,18.15
2022-11-26T15:48:27.170Z,18.10
2022-11-26T15:51:23.662Z,18.19
2022-11-26T15:54:06.303Z,18.17
2022-11-26T15:57:08.217Z,18.16
2022-11-26T16:00:03.401Z,18.11
2022-11-26T16:02:46.914Z,18.02
2022-11-26T16:05:36.311Z,17.99
2022-11-26T16:08:43.280Z,18.01
2022-11-26T16:11:32.803Z,17.97
2022-11-26T16:14:37.868Z,17.98
2022-11-26T16:17:22.404Z,17.99
2022-11-26T16:20:12.379Z,17.94
2022-11-26T16:23:03.660Z,17.96
2022-11-26T16:25:45.366Z,17.92
2022-11-26T16:28:34.350Z,17.92
2022-11-26T16:31:16.792Z,17.85
2022-11-26T16:34:09.318Z,17.88
2022-11-26T16:36:58.421Z,17.83
2022-11-26T16:39:40.973Z,17.74
2022-11-26T16:42:38.371Z,17.79
2022-11-26T16:45:27.712Z,17.68
2022-11-26T16:48:10.287Z,17.69
2022-11-26T16:50:53.816Z,17.77
2022-11-26T16:53:42.896Z,17.67
2022-11-26T16:56:41.708Z,17.69
2022-11-26T16:59:32.487Z,17.69
2022-11-26T17:02:33.590Z,17.65
2022-11-26T17:05:16.456Z,17.52
2022-11-26T17:08:02.210Z,17.59
2022-11-26T17:10:51.340Z,17.59
2022-11-26T17:13:33.675Z,17.55
2022-11-26T17:16:30.294Z,17.48
2022-11-26T17:19:21.849Z,17.50
2022-11-26T17:22:03.439Z,17.45
2022-11-26T17:24:52.713Z,17.48
2022-11-26T17:27:35.427Z,17.42
2022-11-26T17:30:20.448Z,17.42
2022-11-26T17:33:09.422Z,17.42
2022-11-26T17:35:58.735Z,17.35
2022-11-26T17:38:40.364Z,17.19
2022-11-26T17:41:22.637Z,17.31
2022-11-26T17:44:11.359Z,17.25
2022-11-26T17:47:16.388Z,17.29
2022-11-26T17:50:00.810Z,17.30
2022-11-26T17:52:49.361Z,17.35
2022-11-26T17:55:45.424Z,17.23
2022-11-26T17:58:34.925Z,17.16
2022-11-26T18:01:16.432Z,17.09
2022-11-26T18:04:05.848Z,17.11
2022-11-26T18:07:13.353Z,17.12
2022-11-26T18:10:02.724Z,17.02
2022-11-26T18:12:45.348Z,16.93
2022-11-26T18:15:28.740Z,16.95
2022-11-26T18:18:17.270Z,16.95
2022-11-26T18:21:05.688Z,16.97
2022-11-26T18:23:49.471Z,16.96
2022-11-26T18:26:38.891Z,17.03
2022-11-26T18:29:21.468Z,17.02
2022-11-26T18:32:09.710Z,16.97
2022-11-26T18:34:51.263Z,17.03
2022-11-26T18:37:34.817Z,16.96
2022-11-26T18:40:26.378Z,16.95
2022-11-26T18:43:08.832Z,16.96
2022-11-26T18:45:57.413Z,16.87
2022-11-26T18:48:47.676Z,17.16
2022-11-26T18:51:29.296Z,17.15
2022-11-26T18:54:18.346Z,16.94
2022-11-26T18:57:14.294Z,16.95
2022-11-26T19:00:03.372Z,16.95
2022-11-26T19:02:52.354Z,17.17
2022-11-26T19:05:42.386Z,17.13
2022-11-26T19:08:24.710Z,16.98
2022-11-26T19:11:21.450Z,16.96
2022-11-26T19:14:10.380Z,16.86
2022-11-26T19:16:59.395Z,16.79
2022-11-26T19:19:42.228Z,16.81
2022-11-26T19:22:31.385Z,16.60
2022-11-26T19:25:14.680Z,16.55
2022-11-26T19:28:05.122Z,16.62
2022-11-26T19:30:47.731Z,16.56
2022-11-26T19:33:36.424Z,16.53
2022-11-26T19:36:20.837Z,16.49
2022-11-26T19:39:10.432Z,16.59
2022-11-26T19:41:52.840Z,16.67
2022-11-26T19:44:42.448Z,16.51
2022-11-26T19:47:24.808Z,16.39
2022-11-26T19:50:13.458Z,16.37
2022-11-26T19:52:55.728Z,16.44
2022-11-26T19:55:51.336Z,16.30
2022-11-26T19:58:35.773Z,16.25
2022-11-26T20:01:27.507Z,16.22
2022-11-26T20:04:14.448Z,16.18
2022-11-26T20:07:03.380Z,16.10
2022-11-26T20:09:52.429Z,15.94
2022-11-26T20:12:34.839Z,16.06
2022-11-26T20:15:23.374Z,16.12
2022-11-26T20:18:12.318Z,16.34
2022-11-26T20:21:13.359Z,16.37
2022-11-26T20:23:56.600Z,16.15
2022-11-26T20:26:48.393Z,16.14
2022-11-26T20:29:37.469Z,16.10
2022-11-26T20:32:19.600Z,16.03
2022-11-26T20:35:08.376Z,15.91
2022-11-26T20:37:51.115Z,16.05
2022-11-26T20:40:40.326Z,16.10
2022-11-26T20:43:29.707Z,16.24
2022-11-26T20:46:14.400Z,16.12
2022-11-26T20:48:57.371Z,15.95
2022-11-26T20:51:46.340Z,15.95
2022-11-26T20:54:28.636Z,15.90
2022-11-26T20:57:28.322Z,15.91
2022-11-26T21:00:19.121Z,15.90
2022-11-26T21:03:03.520Z,15.88
2022-11-26T21:05:52.377Z,15.93
2022-11-26T21:08:41.370Z,15.97
2022-11-26T21:11:30.383Z,16.01
2022-11-26T21:14:15.244Z,15.86
2022-11-26T21:17:04.470Z,15.92
2022-11-26T21:19:46.769Z,15.87
2022-11-26T21:22:35.320Z,15.73
2022-11-26T21:25:24.348Z,15.73
2022-11-26T21:28:07.316Z,15.82
2022-11-26T21:30:56.384Z,15.67
2022-11-26T21:33:45.375Z,15.76
2022-11-26T21:36:34.265Z,15.77
2022-11-26T21:39:24.262Z,15.68
2022-11-26T21:42:13.350Z,15.95
2022-11-26T21:45:01.621Z,15.87
2022-11-26T21:47:44.385Z,15.78
2022-11-26T21:50:33.668Z,15.72
2022-11-26T21:53:16.379Z,15.60
2022-11-26T21:55:58.526Z,15.60
2022-11-26T21:58:54.365Z,15.54
2022-11-26T22:01:38.223Z,15.55
2022-11-26T22:04:29.423Z,15.46
2022-11-26T22:07:18.664Z,15.49
2022-11-26T22:10:00.717Z,15.47
2022-11-26T22:12:48.707Z,15.34
2022-11-26T22:15:31.357Z,15.27
2022-11-26T22:18:13.748Z,15.24
2022-11-26T22:21:07.365Z,15.10
2022-11-26T22:23:50.249Z,14.88
2022-11-26T22:26:40.280Z,14.94
2022-11-26T22:29:28.653Z,14.85
2022-11-26T22:32:11.313Z,14.67
2022-11-26T22:34:53.548Z,14.52
2022-11-26T22:37:42.379Z,14.81
2022-11-26T22:40:24.546Z,14.85
2022-11-26T22:43:13.379Z,14.91
2022-11-26T22:46:02.613Z,15.03
2022-11-26T22:48:45.404Z,15.17
2022-11-26T22:51:36.703Z,15.17
2022-11-26T22:54:21.395Z,15.22
2022-11-26T22:57:18.806Z,15.11
2022-11-26T23:00:10.353Z,15.15
2022-11-26T23:02:52.691Z,15.08
2022-11-26T23:09:53.338Z,15.18
2022-11-26T23:12:42.002Z,15.11
2022-11-26T23:15:24.657Z,15.00
2022-11-26T23:18:13.301Z,15.11
2022-11-26T23:21:02.295Z,15.06
2022-11-26T23:23:45.132Z,15.06
2022-11-26T23:26:40.343Z,15.11
2022-11-26T23:29:29.278Z,15.12
2022-11-26T23:32:11.596Z,15.12
2022-11-26T23:35:00.236Z,15.11
2022-11-26T23:37:50.267Z,15.13
2022-11-26T23:40:33.159Z,15.14
2022-11-26T23:43:22.341Z,15.12
2022-11-26T23:46:15.340Z,15.02
2022-11-26T23:48:57.685Z,15.05
2022-11-26T23:51:46.329Z,15.04
2022-11-26T23:54:35.358Z,14.90
2022-11-26T23:57:24.341Z,14.87
